Time;durP1;ratioP1;P1;durP2;ratioP2;P2;SDS_P1;SDS_P2;PMS_P1;PMS_P2;Temp;Humidity;BMP_temperature;BMP_pressure;BME280_temperature;BME280_humidity;BME280_pressure;Samples;Min_cycle;Max_cycle;Signal;HPM_P1;HPM_P2
2022/06/09 00:01:03;;;;;;;2.70;2.50;;;;;;;20.25;100.00;99446.47;5031717;28;20211;-71
2022/06/09 00:03:34;;;;;;;3.35;3.05;;;;;;;20.21;100.00;99442.22;4982790;28;20560;-70
2022/06/09 00:06:03;;;;;;;3.33;2.70;;;;;;;20.19;100.00;99440.56;5013735;28;20207;-71
2022/06/09 00:08:31;;;;;;;3.63;3.10;;;;;;;20.08;100.00;99432.16;5031656;28;20718;-70
2022/06/09 00:11:01;;;;;;;4.13;2.83;;;;;;;19.72;100.00;99376.38;5031653;28;20279;-70
2022/06/09 00:13:29;;;;;;;2.60;2.40;;;;;;;20.02;100.00;99430.59;5031473;28;20604;-70
2022/06/09 00:15:56;;;;;;;3.83;3.10;;;;;;;20.07;100.00;99433.94;5030920;28;20701;-70
2022/06/09 00:18:24;;;;;;;3.22;2.65;;;;;;;20.03;100.00;99442.84;5031625;28;20207;-70
2022/06/09 00:20:51;;;;;;;2.90;2.70;;;;;;;19.91;100.00;99416.91;5031580;28;20215;-70
2022/06/09 00:23:19;;;;;;;4.45;2.70;;;;;;;19.99;100.00;99433.31;5031181;28;20196;-70
2022/06/09 00:25:47;;;;;;;4.45;3.03;;;;;;;19.90;100.00;99438.91;5031767;28;20207;-70
2022/06/09 00:28:14;;;;;;;3.03;2.83;;;;;;;19.73;100.00;99425.41;5031767;28;20240;-70
2022/06/09 00:30:41;;;;;;;5.13;2.80;;;;;;;19.69;100.00;99429.09;5031600;28;20227;-70
2022/06/09 00:33:08;;;;;;;3.00;2.80;;;;;;;19.59;100.00;99425.88;5031456;28;20204;-70
2022/06/09 00:35:35;;;;;;;2.70;2.50;;;;;;;19.67;100.00;99426.50;5031814;28;20204;-69
2022/06/09 00:38:02;;;;;;;3.47;3.10;;;;;;;19.65;100.00;99424.84;5031671;28;20226;-70
2022/06/09 00:40:30;;;;;;;2.50;2.30;;;;;;;19.56;100.00;99422.47;5031413;28;20204;-70
2022/06/09 00:42:59;;;;;;;3.38;2.58;;;;;;;19.46;100.00;99410.53;5031420;28;20269;-70
2022/06/09 00:45:30;;;;;;;6.25;3.70;;;;;;;19.55;100.00;99431.31;5031014;28;20550;-67
2022/06/09 00:48:07;;;;;;;3.80;2.58;;;;;;;19.52;100.00;99419.09;5030549;28;20220;-70
2022/06/09 00:50:37;;;;;;;4.93;2.60;;;;;;;19.58;100.00;99424.19;5028814;28;20861;-70
2022/06/09 00:53:13;;;;;;;2.80;2.58;;;;;;;19.60;100.00;99427.59;5031077;28;20200;-69
2022/06/09 00:55:42;;;;;;;3.60;2.58;;;;;;;19.49;100.00;99415.69;5030809;28;20680;-70
2022/06/09 00:58:12;;;;;;;3.22;2.92;;;;;;;19.53;100.00;99423.44;5031089;28;20211;-70
2022/06/09 01:00:46;;;;;;;2.70;2.50;;;;;;;19.44;100.00;99413.19;5031089;28;20192;-70
2022/06/09 01:03:13;;;;;;;4.32;2.78;;;;;;;19.48;100.00;99429.75;5031034;28;20342;-70
2022/06/09 01:05:41;;;;;;;3.33;2.80;;;;;;;19.52;100.00;99434.00;5030853;28;20668;-70
2022/06/09 01:08:11;;;;;;;3.97;2.78;;;;;;;19.48;100.00;99440.25;5011511;28;20750;-70
2022/06/09 01:10:39;;;;;;;3.72;3.00;;;;;;;19.42;100.00;99435.19;5030923;28;20196;-70
2022/06/09 01:13:07;;;;;;;3.20;3.00;;;;;;;19.48;100.00;99424.47;5030464;28;20228;-70
2022/06/09 01:15:48;;;;;;;4.97;3.33;;;;;;;19.33;100.00;99397.72;5030428;28;20222;-71
2022/06/09 01:18:27;;;;;;;4.13;2.78;;;;;;;19.41;100.00;99430.81;4995155;28;20208;-70
2022/06/09 01:21:03;;;;;;;3.85;2.70;;;;;;;19.33;100.00;99424.03;5026642;28;20622;-70
2022/06/09 01:23:55;;;;;;;5.95;3.05;;;;;;;19.24;100.00;99413.81;5014921;28;20195;-70
2022/06/09 01:27:13;;;;;;;3.72;3.08;;;;;;;19.25;100.00;99418.16;5030427;28;20212;-70
2022/06/09 01:29:50;;;;;;;4.40;3.08;;;;;;;19.13;100.00;99410.63;5030683;28;20200;-70
2022/06/09 01:32:25;;;;;;;4.18;3.13;;;;;;;19.22;100.00;99422.66;5015076;28;20200;-70
2022/06/09 01:35:04;;;;;;;4.22;3.13;;;;;;;19.12;100.00;99408.09;5030834;28;20222;-71
2022/06/09 01:37:36;;;;;;;5.57;3.35;;;;;;;19.06;100.00;99411.72;5030407;28;20204;-71
2022/06/09 01:40:05;;;;;;;4.22;3.85;;;;;;;19.04;100.00;99418.81;5030230;28;20204;-70
2022/06/09 01:42:34;;;;;;;3.45;3.20;;;;;;;19.00;100.00;99425.06;5030753;28;20207;-70
2022/06/09 01:45:05;;;;;;;4.65;3.25;;;;;;;18.95;100.00;99415.59;5030721;28;20211;-71
2022/06/09 01:47:39;;;;;;;3.70;3.35;;;;;;;19.02;100.00;99431.13;5034071;28;20230;-70
2022/06/09 01:50:12;;;;;;;4.03;3.10;;;;;;;19.10;100.00;99431.75;5034399;28;20206;-70
2022/06/09 01:52:42;;;;;;;3.80;3.47;;;;;;;18.78;100.00;99395.06;5033781;28;20559;-71
2022/06/09 01:55:14;;;;;;;4.05;3.70;;;;;;;18.87;100.00;99428.94;5034170;28;20204;-70
2022/06/09 01:57:43;;;;;;;4.10;3.38;;;;;;;18.58;100.00;99392.16;5034106;28;20213;-70
2022/06/09 02:00:13;;;;;;;3.67;3.38;;;;;;;18.70;100.00;99410.19;5033784;28;20695;-71
2022/06/09 02:02:46;;;;;;;3.67;3.15;;;;;;;18.76;100.00;99433.66;5034026;28;20199;-70
2022/06/09 02:05:18;;;;;;;4.00;3.70;;;;;;;18.59;100.00;99404.38;5033970;28;20204;-71
2022/06/09 02:07:47;;;;;;;3.47;3.17;;;;;;;18.84;100.00;99442.16;5014293;28;20224;-70
2022/06/09 02:10:21;;;;;;;3.75;3.53;;;;;;;18.91;100.00;99437.59;5005969;28;20211;-70
2022/06/09 02:12:49;;;;;;;4.90;3.80;;;;;;;18.95;100.00;99445.34;5033392;28;20196;-70
2022/06/09 02:15:22;;;;;;;6.32;3.65;;;;;;;18.97;100.00;99425.16;5033526;28;20201;-70
2022/06/09 02:17:52;;;;;;;4.90;3.30;;;;;;;18.70;100.00;99400.53;5033485;28;20196;-70
2022/06/09 02:20:21;;;;;;;4.20;3.90;;;;;;;18.89;100.00;99423.66;5033855;28;20565;-71
2022/06/09 02:22:48;;;;;;;5.68;4.32;;;;;;;19.00;100.00;99450.47;5033123;28;20200;-71
2022/06/09 02:25:16;;;;;;;4.20;3.90;;;;;;;18.99;100.00;99457.50;5033969;28;20200;-70
2022/06/09 02:27:43;;;;;;;9.25;4.15;;;;;;;18.91;100.00;99454.22;5033676;28;20228;-71
2022/06/09 02:30:11;;;;;;;10.50;4.25;;;;;;;18.66;100.00;99453.19;5033645;28;20204;-70
2022/06/09 02:32:38;;;;;;;7.03;4.55;;;;;;;18.66;100.00;99443.53;5033688;28;20291;-71
2022/06/09 02:35:07;;;;;;;5.82;4.43;;;;;;;18.97;100.00;99464.56;5033670;28;20196;-70
2022/06/09 02:37:34;;;;;;;5.53;4.88;;;;;;;18.96;100.00;99468.09;4966400;28;20196;-71
2022/06/09 02:40:01;;;;;;;4.90;3.95;;;;;;;18.93;100.00;99462.94;5033324;28;20200;-72
2022/06/09 02:42:28;;;;;;;4.00;3.75;;;;;;;18.98;100.00;99466.28;5033736;28;20193;-71
2022/06/09 02:44:54;;;;;;;7.30;4.60;;;;;;;18.84;100.00;99463.19;5014654;28;20200;-71
2022/06/09 02:47:21;;;;;;;5.65;3.95;;;;;;;18.81;100.00;99473.78;5033251;28;20196;-72
2022/06/09 02:49:48;;;;;;;5.63;4.20;;;;;;;18.95;100.00;99469.00;5032809;28;20587;-71
2022/06/09 02:52:16;;;;;;;7.43;4.28;;;;;;;18.60;100.00;99432.34;5030398;28;20204;-71
2022/06/09 02:54:43;;;;;;;5.05;3.60;;;;;;;18.82;100.00;99467.63;5032926;28;20672;-71
2022/06/09 02:57:10;;;;;;;6.43;4.25;;;;;;;18.87;100.00;99457.84;5030523;28;20200;-71
2022/06/09 02:59:37;;;;;;;4.28;3.97;;;;;;;18.95;100.00;99465.50;5033228;28;20200;-71
2022/06/09 03:02:04;;;;;;;8.73;4.88;;;;;;;18.94;100.00;99464.63;5033181;28;20223;-71
2022/06/09 03:04:31;;;;;;;4.72;4.07;;;;;;;18.92;100.00;99441.94;5030211;28;20199;-71
2022/06/09 03:06:58;;;;;;;15.10;8.68;;;;;;;19.03;100.00;99459.13;5032207;28;20204;-71
2022/06/09 03:09:26;;;;;;;5.78;5.20;;;;;;;19.24;100.00;99463.75;5032606;28;20227;-71
2022/06/09 03:11:53;;;;;;;5.35;4.40;;;;;;;19.63;100.00;99463.44;5032992;28;20877;-71
2022/06/09 03:14:20;;;;;;;5.57;3.35;;;;;;;20.35;100.00;99464.59;5032109;28;20798;-71
2022/06/09 03:16:47;;;;;;;7.70;3.88;;;;;;;20.94;100.00;99479.13;5032660;28;20208;-71
2022/06/09 03:19:14;;;;;;;4.05;3.63;;;;;;;21.52;100.00;99471.69;5032933;28;20203;-72
2022/06/09 03:21:41;;;;;;;4.05;3.65;;;;;;;22.07;100.00;99483.56;4990445;28;20726;-71
2022/06/09 03:24:08;;;;;;;10.55;3.58;;;;;;;22.40;100.00;99476.03;5032426;28;20679;-72
2022/06/09 03:26:37;;;;;;;3.60;3.05;;;;;;;22.75;100.00;99453.38;5023078;28;20275;-72
2022/06/09 03:29:04;;;;;;;9.35;3.08;;;;;;;23.11;100.00;99457.84;5032306;28;20230;-72
2022/06/09 03:31:31;;;;;;;4.50;3.35;;;;;;;23.17;100.00;99460.22;4997548;28;20212;-71
2022/06/09 03:33:58;;;;;;;3.55;3.25;;;;;;;23.18;100.00;99475.16;5014403;28;20572;-72
2022/06/09 03:36:26;;;;;;;4.53;3.25;;;;;;;22.63;100.00;99466.16;5032585;28;20219;-74
2022/06/09 03:38:53;;;;;;;5.20;3.42;;;;;;;22.28;100.00;99437.78;5032749;28;20275;-70
2022/06/09 03:41:20;;;;;;;5.70;3.70;;;;;;;22.12;100.00;99471.88;5031722;28;20198;-71
2022/06/09 03:43:48;;;;;;;9.05;3.63;;;;;;;21.94;100.00;99475.28;5032478;28;20208;-72
2022/06/09 03:46:15;;;;;;;5.15;3.50;;;;;;;21.68;100.00;99472.81;5031886;28;20596;-71
2022/06/09 03:48:42;;;;;;;5.93;3.80;;;;;;;21.55;100.00;99471.56;5032550;28;20239;-76
2022/06/09 03:51:10;;;;;;;4.63;3.55;;;;;;;21.43;100.00;99472.06;4997386;28;20200;-71
2022/06/09 03:53:37;;;;;;;4.50;4.10;;;;;;;21.18;100.00;99467.72;5032036;28;20212;-70
2022/06/09 03:56:05;;;;;;;4.43;3.28;;;;;;;21.00;100.00;99462.25;5031718;28;20200;-70
2022/06/09 03:58:31;;;;;;;5.03;3.80;;;;;;;21.05;100.00;99466.41;5031319;28;20204;-71
2022/06/09 04:01:00;;;;;;;5.63;3.33;;;;;;;21.11;100.00;99455.69;5031883;28;20204;-77
2022/06/09 04:03:26;;;;;;;7.85;3.63;;;;;;;21.22;100.00;99450.84;5032098;28;20215;-70
2022/06/09 04:05:53;;;;;;;4.13;3.70;;;;;;;21.19;100.00;99460.66;5031092;28;20207;-71
2022/06/09 04:08:20;;;;;;;4.53;3.85;;;;;;;21.26;100.00;99462.13;5030565;28;20660;-70
2022/06/09 04:10:48;;;;;;;5.68;3.67;;;;;;;21.18;100.00;99467.72;5031638;28;20213;-70
2022/06/09 04:13:16;;;;;;;4.25;3.25;;;;;;;21.24;100.00;99451.66;5031286;28;20227;-69
2022/06/09 04:15:43;;;;;;;4.35;3.60;;;;;;;21.38;100.00;99469.59;5031083;28;20261;-70
2022/06/09 04:18:12;;;;;;;4.28;3.88;;;;;;;21.10;100.00;99417.06;5031752;28;20811;-69
2022/06/09 04:20:40;;;;;;;4.95;4.03;;;;;;;21.16;100.00;99469.56;5031190;28;20266;-69
2022/06/09 04:23:06;;;;;;;3.90;3.50;;;;;;;21.01;100.00;99449.00;5031262;28;20243;-76
2022/06/09 04:25:34;;;;;;;6.32;3.78;;;;;;;21.24;100.00;99466.63;5031159;28;20583;-70
2022/06/09 04:28:00;;;;;;;5.60;4.38;;;;;;;21.01;100.00;99438.44;5031371;28;20204;-70
2022/06/09 04:30:27;;;;;;;4.32;3.92;;;;;;;21.11;100.00;99463.63;5032004;28;20200;-70
2022/06/09 04:32:55;;;;;;;8.45;3.90;;;;;;;21.15;100.00;99446.72;5031709;28;20218;-70
2022/06/09 04:35:24;;;;;;;4.85;3.80;;;;;;;20.66;100.00;99402.00;5031502;28;20200;-70
2022/06/09 04:38:03;;;;;;;8.52;4.47;;;;;;;21.04;100.00;99462.09;5031560;28;20200;-70
2022/06/09 04:40:33;;;;;;;7.63;3.80;;;;;;;20.82;100.00;99437.44;5031238;28;20254;-70
2022/06/09 04:43:01;;;;;;;5.80;4.00;;;;;;;20.27;100.00;99406.91;5031272;28;20192;-69
2022/06/09 04:45:28;;;;;;;7.93;4.00;;;;;;;20.74;100.00;99450.03;5031276;28;20204;-70
2022/06/09 04:47:55;;;;;;;12.98;4.00;;;;;;;20.73;100.00;99432.50;5012912;28;20203;-70
2022/06/09 04:50:23;;;;;;;7.47;4.28;;;;;;;20.75;100.00;99425.41;5031272;28;20691;-70
2022/06/09 04:52:50;;;;;;;6.20;4.28;;;;;;;21.09;100.00;99452.22;5031152;28;20202;-70
2022/06/09 04:55:17;;;;;;;10.57;4.20;;;;;;;20.92;100.00;99446.72;5031303;28;20204;-70
2022/06/09 04:57:44;;;;;;;8.10;4.60;;;;;;;20.81;100.00;99417.25;5030797;28;20207;-70
2022/06/09 05:00:14;;;;;;;10.70;4.35;;;;;;;21.49;100.00;99456.84;5030629;28;20217;-69
2022/06/09 05:02:42;;;;;;;12.10;4.32;;;;;;;21.84;100.00;99457.22;5031067;28;20208;-69
2022/06/09 05:05:17;;;;;;;8.07;4.03;;;;;;;22.11;100.00;99470.19;5030484;28;20290;-68
2022/06/09 05:07:45;;;;;;;6.85;4.55;;;;;;;22.23;100.00;99467.00;5030608;28;20211;-69
2022/06/09 05:10:12;;;;;;;9.80;4.00;;;;;;;22.57;100.00;99460.28;5030522;28;20216;-68
2022/06/09 05:12:39;;;;;;;5.72;3.88;;;;;;;22.98;100.00;99467.25;5030817;28;20562;-69
2022/06/09 05:15:07;;;;;;;7.32;4.07;;;;;;;23.28;100.00;99488.81;5030429;28;20192;-69
2022/06/09 05:17:34;;;;;;;6.20;4.20;;;;;;;23.22;100.00;99482.00;5030314;28;20564;-70
2022/06/09 05:20:01;;;;;;;5.80;3.75;;;;;;;23.79;100.00;99493.47;5017230;28;20199;-69
2022/06/09 05:22:27;;;;;;;10.82;4.28;;;;;;;24.42;100.00;99493.88;5015703;28;20204;-69
2022/06/09 05:24:58;;;;;;;10.88;5.53;;;;;;;24.66;100.00;99482.03;5034712;28;20192;-69
2022/06/09 05:27:25;;;;;;;13.65;3.83;;;;;;;25.00;100.00;99460.78;5000648;28;20204;-68
2022/06/09 05:29:51;;;;;;;8.25;3.75;;;;;;;25.11;100.00;99494.69;5034488;28;20223;-70
2022/06/09 05:32:18;;;;;;;8.57;4.15;;;;;;;25.24;100.00;99500.19;5033022;28;20199;-68
2022/06/09 05:34:45;;;;;;;5.88;4.03;;;;;;;25.46;99.13;99506.03;5051861;28;20581;-70
2022/06/09 05:37:12;;;;;;;6.25;4.07;;;;;;;25.43;97.89;99511.53;5000588;28;20214;-70
2022/06/09 05:45:10;;;;;;;14.43;4.65;;;;;;;25.39;97.73;99475.47;4993954;28;20230;-70
2022/06/09 05:47:37;;;;;;;29.73;4.82;;;;;;;25.90;95.15;99501.78;5049544;28;20199;-69
2022/06/09 05:50:06;;;;;;;16.25;4.38;;;;;;;26.07;93.71;99493.72;5044168;28;20222;-70
2022/06/09 05:52:34;;;;;;;21.80;4.88;;;;;;;26.04;92.17;99506.31;5030389;28;20234;-69
2022/06/09 05:55:01;;;;;;;12.45;4.20;;;;;;;26.21;91.46;99500.91;5053799;28;20204;-69
2022/06/09 05:57:29;;;;;;;13.00;4.50;;;;;;;26.60;89.30;99497.72;5054366;28;20214;-69
2022/06/09 05:59:56;;;;;;;16.23;4.22;;;;;;;26.75;88.30;99502.13;5054052;28;20208;-68
2022/06/09 06:02:25;;;;;;;10.88;4.20;;;;;;;27.03;85.19;99498.66;5054020;28;20200;-69
2022/06/09 06:04:53;;;;;;;15.27;4.00;;;;;;;27.48;80.42;99493.13;5050830;28;20223;-67
2022/06/09 06:07:20;;;;;;;13.45;3.45;;;;;;;28.09;76.64;99502.50;5034680;28;20211;-68
2022/06/09 06:09:47;;;;;;;10.75;4.20;;;;;;;28.54;74.91;99501.22;5047987;28;20222;-67
2022/06/09 06:12:14;;;;;;;15.38;3.80;;;;;;;28.68;70.88;99500.34;5053487;28;20678;-64
2022/06/09 06:14:42;;;;;;;11.65;4.45;;;;;;;29.25;68.75;99504.28;5040776;28;20236;-70
2022/06/09 06:17:09;;;;;;;6.25;3.45;;;;;;;29.12;67.71;99491.91;5039058;28;20222;-69
2022/06/09 06:19:36;;;;;;;8.50;3.83;;;;;;;28.66;69.34;99507.56;5053679;28;20250;-69
2022/06/09 06:22:03;;;;;;;10.80;3.67;;;;;;;28.52;70.95;99503.16;5053095;28;20679;-70
2022/06/09 06:24:30;;;;;;;12.52;3.80;;;;;;;27.94;72.49;99503.47;5053440;28;20195;-70
2022/06/09 06:26:57;;;;;;;13.60;3.50;;;;;;;28.01;74.29;99502.97;5051062;28;20207;-69
2022/06/09 06:29:27;;;;;;;12.65;3.75;;;;;;;27.28;78.43;99479.34;5041695;28;20722;-69
2022/06/09 06:31:55;;;;;;;8.70;3.45;;;;;;;27.63;76.28;99501.97;5052391;28;20195;-70
2022/06/09 06:34:22;;;;;;;3.30;2.33;;;;;;;27.43;70.04;99494.34;5053085;28;20207;-70
2022/06/09 06:36:49;;;;;;;2.70;2.50;;;;;;;26.35;71.70;99500.09;5053074;28;20219;-70
2022/06/09 06:39:17;;;;;;;2.22;2.03;;;;;;;26.02;73.82;99489.59;5052931;28;20226;-70
2022/06/09 06:41:44;;;;;;;2.25;2.05;;;;;;;25.69;77.71;99492.38;5052906;28;20202;-70
2022/06/09 06:44:11;;;;;;;4.10;2.20;;;;;;;25.83;80.44;99503.06;5052921;28;20211;-70
2022/06/09 06:46:37;;;;;;;4.05;2.70;;;;;;;25.57;80.54;99501.03;5052795;28;20203;-70
2022/06/09 06:49:08;;;;;;;3.53;2.20;;;;;;;25.43;81.20;99469.06;5017804;28;20230;-70
2022/06/09 06:51:35;;;;;;;4.15;1.85;;;;;;;25.09;83.57;99488.59;5052857;28;20199;-69
2022/06/09 06:54:04;;;;;;;2.20;2.10;;;;;;;24.80;86.05;99484.81;5052550;28;20671;-69
2022/06/09 06:56:32;;;;;;;2.17;1.95;;;;;;;24.22;89.68;99471.06;5053043;28;20257;-70
2022/06/09 06:58:59;;;;;;;6.15;2.00;;;;;;;24.31;93.07;99480.31;5052632;28;20632;-69
2022/06/09 07:01:26;;;;;;;3.90;2.78;;;;;;;24.84;94.68;99465.19;5052573;28;20199;-70
2022/06/09 07:03:52;;;;;;;2.33;2.13;;;;;;;25.20;90.23;99488.03;5052790;28;20219;-70
2022/06/09 07:06:20;;;;;;;3.63;2.00;;;;;;;25.22;83.60;99472.88;5052563;28;20199;-70
2022/06/09 07:08:48;;;;;;;2.72;2.30;;;;;;;25.86;84.27;99476.34;5052449;28;20621;-71
2022/06/09 07:11:15;;;;;;;8.65;1.98;;;;;;;25.85;79.41;99487.91;5052453;28;20587;-70
2022/06/09 07:13:42;;;;;;;3.50;2.17;;;;;;;25.79;81.44;99482.94;5052140;28;20231;-70
2022/06/09 07:16:10;;;;;;;2.35;2.15;;;;;;;25.69;80.38;99471.13;5052648;28;20254;-70
2022/06/09 07:18:38;;;;;;;3.13;2.20;;;;;;;25.61;83.18;99484.00;5052349;28;20203;-70
2022/06/09 07:21:06;;;;;;;1.85;1.73;;;;;;;25.39;81.22;99470.16;5052115;28;20230;-70
2022/06/09 07:23:35;;;;;;;2.90;2.20;;;;;;;25.92;80.08;99472.47;5015481;28;20195;-71
2022/06/09 07:26:02;;;;;;;2.22;2.00;;;;;;;25.09;82.20;99457.63;5048479;28;20195;-70
2022/06/09 07:28:29;;;;;;;4.50;2.50;;;;;;;25.14;83.46;99450.28;5051931;28;20207;-72
2022/06/09 07:30:58;;;;;;;2.45;2.22;;;;;;;24.97;86.17;99450.31;5039502;28;20226;-72
2022/06/09 07:33:27;;;;;;;4.32;2.28;;;;;;;24.78;86.82;99454.88;5039031;28;20215;-70
2022/06/09 07:35:56;;;;;;;2.47;2.28;;;;;;;24.76;86.67;99451.44;5046431;28;20196;-70
2022/06/09 07:38:24;;;;;;;2.45;2.00;;;;;;;24.75;84.44;99463.00;5043189;28;20208;-70
2022/06/09 07:40:52;;;;;;;2.67;2.15;;;;;;;25.12;81.37;99465.41;5048535;28;20200;-70
2022/06/09 07:43:20;;;;;;;2.67;2.00;;;;;;;25.34;80.71;99474.84;5040664;28;20687;-69
2022/06/09 07:45:50;;;;;;;3.72;2.20;;;;;;;25.50;82.02;99439.44;5049968;28;20208;-69
2022/06/09 07:48:19;;;;;;;2.63;2.40;;;;;;;26.26;76.71;99477.56;5013128;28;20203;-69
2022/06/09 07:50:47;;;;;;;2.60;2.05;;;;;;;25.91;76.69;99463.66;5046180;28;20227;-69
2022/06/09 07:53:14;;;;;;;2.20;2.00;;;;;;;26.01;73.40;99462.16;5051681;28;20207;-69
2022/06/09 07:55:41;;;;;;;3.80;2.03;;;;;;;26.02;72.22;99471.00;5049345;28;20200;-72
2022/06/09 07:58:10;;;;;;;2.53;1.83;;;;;;;26.26;74.16;99474.06;5011275;28;20673;-70
2022/06/09 08:00:36;;;;;;;1.85;1.65;;;;;;;26.27;70.17;99473.09;5042825;28;20273;-70
2022/06/09 08:03:04;;;;;;;1.70;1.63;;;;;;;25.93;72.33;99460.91;5051745;28;20309;-70
2022/06/09 08:05:33;;;;;;;3.42;1.85;;;;;;;26.08;71.77;99455.53;5051660;28;20612;-71
2022/06/09 08:08:00;;;;;;;4.10;2.00;;;;;;;26.25;70.17;99483.00;5051575;28;20212;-70
2022/06/09 08:10:29;;;;;;;2.20;2.00;;;;;;;26.73;69.45;99476.53;5051389;28;20245;-71
2022/06/09 08:12:59;;;;;;;1.95;1.70;;;;;;;26.76;66.19;99469.22;5037005;28;20259;-68
2022/06/09 08:15:28;;;;;;;2.95;1.60;;;;;;;26.22;69.43;99475.19;5002008;28;20651;-67
2022/06/09 08:17:56;;;;;;;4.30;2.10;;;;;;;25.87;71.87;99480.69;5039068;28;20203;-67
2022/06/09 08:20:24;;;;;;;1.65;1.65;;;;;;;26.10;71.33;99477.59;5051151;28;20207;-67
2022/06/09 08:22:52;;;;;;;2.15;1.90;;;;;;;26.14;70.04;99479.13;5038906;28;20208;-67
2022/06/09 08:25:21;;;;;;;2.47;1.98;;;;;;;26.33;69.63;99441.69;5049572;28;20208;-71
2022/06/09 08:27:48;;;;;;;1.70;1.60;;;;;;;26.28;69.68;99462.41;5051105;28;20195;-71
2022/06/09 08:30:17;;;;;;;3.00;2.22;;;;;;;25.87;72.08;99463.91;5050992;28;20242;-71
2022/06/09 08:32:45;;;;;;;4.38;1.80;;;;;;;26.23;73.53;99471.56;5042339;28;20204;-72
2022/06/09 08:35:15;;;;;;;4.03;1.65;;;;;;;25.90;70.59;99438.00;5045891;28;20215;-72
2022/06/09 08:37:43;;;;;;;2.85;1.80;;;;;;;26.32;70.54;99460.41;5043168;28;20215;-72
2022/06/09 08:40:16;;;;;;;3.83;2.00;;;;;;;26.23;71.92;99471.56;5030526;28;20204;-72
2022/06/09 08:42:54;;;;;;;1.80;1.70;;;;;;;26.19;71.73;99462.06;5024697;28;20265;-72
2022/06/09 08:45:28;;;;;;;2.40;2.00;;;;;;;26.10;68.83;99466.97;5050491;28;20206;-72
2022/06/09 08:48:00;;;;;;;2.05;1.77;;;;;;;25.83;70.45;99462.38;5015406;28;20191;-72
2022/06/09 08:50:30;;;;;;;1.70;1.70;;;;;;;25.70;70.96;99456.03;5050948;28;20232;-72
2022/06/09 08:53:04;;;;;;;4.25;1.80;;;;;;;25.84;73.96;99449.00;5015138;28;20210;-72
2022/06/09 08:55:38;;;;;;;1.63;1.55;;;;;;;25.82;73.98;99448.25;5050082;28;20222;-72
2022/06/09 08:58:13;;;;;;;2.53;2.33;;;;;;;26.00;73.82;99428.59;5050268;28;20196;-71
2022/06/09 09:00:46;;;;;;;2.40;2.20;;;;;;;26.31;70.92;99405.53;5050500;28;20210;-71
2022/06/09 09:03:28;;;;;;;1.83;1.73;;;;;;;26.51;70.28;99423.78;5050438;28;20705;-71
2022/06/09 09:06:04;;;;;;;3.45;2.00;;;;;;;26.55;71.54;99378.31;5050375;28;20606;-72
2022/06/09 09:08:31;;;;;;;2.88;1.80;;;;;;;26.70;67.19;99416.41;5050480;28;20207;-71
2022/06/09 09:11:13;;;;;;;1.75;1.65;;;;;;;26.43;69.25;99397.66;5048714;28;20223;-71
2022/06/09 09:13:46;;;;;;;2.00;1.90;;;;;;;26.44;70.93;99433.06;5039666;28;20623;-72
2022/06/09 09:16:21;;;;;;;2.97;2.22;;;;;;;26.70;69.66;99419.06;5047775;28;20211;-71
2022/06/09 09:18:54;;;;;;;1.80;1.70;;;;;;;26.29;70.94;99426.03;5030508;28;20212;-70
2022/06/09 09:21:30;;;;;;;3.05;2.20;;;;;;;26.68;70.34;99420.13;5030396;28;20204;-71
2022/06/09 09:24:05;;;;;;;2.03;1.75;;;;;;;26.40;68.53;99394.31;5030427;28;20452;-69
2022/06/09 09:26:49;;;;;;;2.28;2.05;;;;;;;27.07;70.19;99421.19;5030460;28;20221;-71
2022/06/09 09:29:25;;;;;;;4.55;2.33;;;;;;;27.11;69.30;99425.34;5012324;28;20290;-71
2022/06/09 09:31:56;;;;;;;7.15;1.90;;;;;;;26.49;70.09;99415.06;5030088;28;20206;-68
2022/06/09 09:34:29;;;;;;;2.50;2.00;;;;;;;26.92;69.95;99430.13;5038416;28;20204;-69
2022/06/09 09:37:01;;;;;;;2.20;2.00;;;;;;;26.93;69.48;99402.53;4999929;28;20299;-69
2022/06/09 09:39:40;;;;;;;6.25;2.15;;;;;;;27.44;66.12;99422.34;5042481;28;20207;-68
2022/06/09 09:42:12;;;;;;;2.50;2.30;;;;;;;27.48;65.89;99410.56;5045777;28;20199;-69
2022/06/09 09:44:40;;;;;;;4.43;2.10;;;;;;;27.05;69.63;99414.22;5041205;28;20204;-69
2022/06/09 09:47:07;;;;;;;2.53;1.95;;;;;;;26.94;67.00;99411.38;5045162;28;20215;-68
2022/06/09 09:49:39;;;;;;;1.98;1.80;;;;;;;26.88;68.64;99412.63;5049967;28;20211;-68
2022/06/09 09:52:36;;;;;;;6.75;1.90;;;;;;;27.25;68.83;99407.66;5049747;28;20249;-69
2022/06/09 09:55:04;;;;;;;2.85;2.20;;;;;;;26.92;66.49;99384.91;5050031;28;20704;-68
2022/06/09 09:57:33;;;;;;;2.22;1.75;;;;;;;26.95;66.51;99384.69;5049590;28;20591;-68
2022/06/09 10:00:00;;;;;;;6.35;2.28;;;;;;;27.31;64.98;99402.78;5041147;28;20287;-68
2022/06/09 10:08:39;;;;;;;2.60;2.40;;;;;;;27.70;62.00;99363.88;5026330;28;20206;-68
2022/06/09 10:14:27;;;;;;;3.83;2.00;;;;;;;27.64;63.50;99375.81;4998065;28;20236;-68
2022/06/09 10:16:56;;;;;;;2.58;2.38;;;;;;;27.70;64.89;99364.72;4988519;28;20193;-68
2022/06/09 10:19:26;;;;;;;3.38;2.15;;;;;;;27.94;63.78;99356.91;5010593;28;20205;-68
2022/06/09 10:21:56;;;;;;;2.40;2.05;;;;;;;27.70;62.70;99371.88;4991674;28;20204;-68
2022/06/09 10:24:31;;;;;;;1.98;1.88;;;;;;;27.59;61.65;99362.78;5005385;28;20224;-68
2022/06/09 10:26:59;;;;;;;2.00;1.90;;;;;;;27.00;63.31;99353.31;4954171;28;20217;-68
2022/06/09 10:29:36;;;;;;;2.35;1.60;;;;;;;26.91;66.23;99343.25;4965893;28;20209;-68
2022/06/09 10:32:06;;;;;;;2.03;1.92;;;;;;;27.04;66.71;99354.81;5008010;28;20307;-68
2022/06/09 10:34:40;;;;;;;2.08;1.98;;;;;;;26.57;65.64;99293.13;5000842;28;20201;-68
2022/06/09 10:37:17;;;;;;;2.30;2.10;;;;;;;26.84;66.30;99344.59;5011113;28;20204;-67
2022/06/09 10:39:48;;;;;;;4.70;2.33;;;;;;;27.47;65.48;99347.59;5011103;28;20776;-67
2022/06/09 10:42:30;;;;;;;3.17;2.63;;;;;;;27.61;63.71;99344.06;5010891;28;20282;-68
2022/06/09 10:45:19;;;;;;;4.30;2.40;;;;;;;27.93;62.82;99353.38;5011028;28;20197;-68
2022/06/09 10:56:46;;;;;;;7.03;2.45;;;;;;;28.01;59.57;99342.19;4952320;29;20278;-68
2022/06/09 10:59:18;;;;;;;4.13;2.05;;;;;;;27.86;60.53;99333.41;4952301;29;20202;-67
2022/06/09 11:01:45;;;;;;;3.08;1.80;;;;;;;27.59;59.95;99319.31;4952537;29;20207;-72
2022/06/09 11:04:15;;;;;;;1.58;1.55;;;;;;;27.94;58.72;99311.59;4952316;29;20202;-73
2022/06/09 11:07:10;;;;;;;4.05;2.33;;;;;;;28.08;59.61;99300.84;4952166;29;20766;-72
2022/06/09 11:09:47;;;;;;;5.00;1.95;;;;;;;28.32;57.33;99317.00;4924581;29;20711;-65
2022/06/09 11:12:25;;;;;;;4.13;2.25;;;;;;;28.41;57.88;99329.66;4951730;29;20237;-68
2022/06/09 11:15:09;;;;;;;2.75;1.92;;;;;;;28.05;57.92;99283.25;4951924;29;20677;-67
2022/06/09 11:17:53;;;;;;;4.57;1.90;;;;;;;28.33;59.93;99316.00;4970511;28;20237;-68
2022/06/09 11:20:26;;;;;;;2.20;2.10;;;;;;;28.01;59.16;99313.72;5010654;28;20204;-67
2022/06/09 11:23:02;;;;;;;2.53;1.58;;;;;;;28.15;57.95;99318.13;5010211;28;20221;-68
2022/06/09 11:25:55;;;;;;;2.00;1.90;;;;;;;28.30;58.57;99322.41;5038547;28;20206;-67
2022/06/09 11:28:44;;;;;;;4.22;2.35;;;;;;;28.77;57.40;99321.75;5010179;28;20673;-68
2022/06/09 11:32:05;;;;;;;2.35;2.22;;;;;;;29.03;55.41;99309.19;5010125;28;20233;-68
2022/06/09 11:35:16;;;;;;;2.35;2.25;;;;;;;28.76;54.82;99320.03;4951518;28;20219;-69
2022/06/09 11:37:58;;;;;;;1.98;1.88;;;;;;;28.71;54.43;99327.53;4951696;28;20643;-71
2022/06/09 11:40:35;;;;;;;4.13;1.95;;;;;;;28.74;54.96;99319.31;4951675;29;20199;-69
2022/06/09 11:43:17;;;;;;;2.00;1.90;;;;;;;28.06;56.20;99303.63;4951551;28;20203;-68
2022/06/09 11:45:48;;;;;;;2.35;2.20;;;;;;;28.49;56.22;99300.66;4951502;28;20279;-68
2022/06/09 11:48:22;;;;;;;2.40;2.28;;;;;;;29.11;54.26;99316.66;4951419;28;20203;-69
2022/06/09 11:50:50;;;;;;;2.25;2.15;;;;;;;29.10;54.26;99296.25;4948918;28;20230;-69
2022/06/09 11:53:21;;;;;;;3.65;2.03;;;;;;;28.82;56.16;99290.28;4960841;28;20210;-69
2022/06/09 11:55:59;;;;;;;2.08;1.98;;;;;;;28.62;54.43;99298.81;4919710;29;20211;-69
2022/06/09 11:58:45;;;;;;;4.72;1.98;;;;;;;28.76;53.84;99279.16;4966455;28;20205;-69
2022/06/09 12:01:46;;;;;;;2.20;2.10;;;;;;;29.30;52.96;99295.66;4970472;28;20216;-68
2022/06/09 12:04:37;;;;;;;3.25;1.98;;;;;;;28.85;53.97;99292.72;4915094;29;20724;-70
2022/06/09 12:07:27;;;;;;;4.43;2.22;;;;;;;29.08;54.33;99287.47;4950889;28;20719;-70
2022/06/09 12:10:18;;;;;;;1.90;1.80;;;;;;;28.94;53.88;99292.03;4951146;28;20202;-70